TimeEDT,TemperatureF,Dew PointF,Humidity,Sea Level PressureIn,VisibilityMPH,Wind Direction,Wind SpeedMPH,Gust SpeedMPH,PrecipitationIn,Events,Conditions,WindDirDegrees,DateUTC
12:52 AM,28.9,12.9,51,30.09,10.0,Variable,5.8,-,N/A,,Clear,0,2013-04-04 04:52:00
1:52 AM,28.0,12.0,51,30.11,10.0,NW,10.4,19.6,N/A,,Clear,320,2013-04-04 05:52:00
2:52 AM,28.0,9.0,45,30.11,10.0,Variable,4.6,17.3,N/A,,Clear,0,2013-04-04 06:52:00
3:52 AM,28.0,8.1,43,30.13,10.0,Variable,6.9,-,N/A,,Clear,0,2013-04-04 07:52:00
4:52 AM,27.0,7.0,43,30.14,10.0,West,8.1,-,N/A,,Clear,280,2013-04-04 08:52:00
5:52 AM,25.0,8.1,49,30.15,10.0,WNW,4.6,-,N/A,,Clear,300,2013-04-04 09:52:00
6:52 AM,26.1,8.1,47,30.18,10.0,Variable,6.9,19.6,N/A,,Clear,0,2013-04-04 10:52:00
7:52 AM,28.0,8.1,43,30.19,10.0,West,12.7,20.7,N/A,,Clear,280,2013-04-04 11:52:00
8:52 AM,30.9,8.1,38,30.20,10.0,West,10.4,25.3,N/A,,Clear,280,2013-04-04 12:52:00
9:52 AM,33.1,8.1,35,30.20,10.0,WNW,8.1,18.4,N/A,,Clear,290,2013-04-04 13:52:00
10:52 AM,36.0,7.0,30,30.17,10.0,Variable,4.6,-,N/A,,Clear,0,2013-04-04 14:52:00
11:52 AM,39.0,6.1,26,30.14,10.0,Variable,6.9,-,N/A,,Clear,0,2013-04-04 15:52:00
12:52 PM,42.1,7.0,24,30.11,10.0,WNW,8.1,-,N/A,,Clear,290,2013-04-04 16:52:00
1:52 PM,44.1,8.1,23,30.07,10.0,Variable,5.8,17.3,N/A,,Clear,0,2013-04-04 17:52:00
2:52 PM,46.0,7.0,20,30.06,10.0,SSW,5.8,19.6,N/A,,Clear,200,2013-04-04 18:52:00
3:52 PM,48.0,7.0,19,30.01,10.0,WSW,11.5,19.6,N/A,,Clear,240,2013-04-04 19:52:00
4:52 PM,48.9,7.0,18,29.98,10.0,SW,11.5,20.7,N/A,,Clear,230,2013-04-04 20:52:00
5:52 PM,48.0,9.0,21,29.97,10.0,WSW,12.7,20.7,N/A,,Clear,240,2013-04-04 21:52:00
6:52 PM,46.0,10.9,24,29.97,10.0,WSW,11.5,19.6,N/A,,Clear,240,2013-04-04 22:52:00
7:52 PM,43.0,12.9,30,29.97,10.0,Variable,5.8,-,N/A,,Clear,0,2013-04-04 23:52:00
8:52 PM,39.9,16.0,38,29.97,10.0,SSW,8.1,-,N/A,,Clear,200,2013-04-05 00:52:00
9:52 PM,43.0,15.1,32,29.96,10.0,SW,5.8,-,N/A,,Clear,220,2013-04-05 01:52:00
10:52 PM,45.0,16.0,31,29.95,10.0,WSW,9.2,21.9,N/A,,Clear,240,2013-04-05 02:52:00
11:52 PM,34.0,19.0,54,29.92,10.0,Calm,Calm,-,N/A,,Clear,0,2013-04-05 03:52:00